Time;durP1;ratioP1;P1;durP2;ratioP2;P2;SDS_P1;SDS_P2;PMS_P1;PMS_P2;Temp;Humidity;BMP_temperature;BMP_pressure;BME280_temperature;BME280_humidity;BME280_pressure;Samples;Min_cycle;Max_cycle;Signal;HPM_P1;HPM_P2
2023/07/08 00:00:11;;;;;;;8.02;4.00;;;17.30;99.90;;;;;;6246120;23;20473;-60
2023/07/08 00:02:40;;;;;;;7.93;3.60;;;17.20;99.90;;;;;;6243806;23;20428;-60
2023/07/08 00:05:09;;;;;;;4.90;3.40;;;17.20;99.90;;;;;;6245993;23;20024;-60
2023/07/08 00:07:36;;;;;;;5.68;3.22;;;17.20;99.90;;;;;;6245939;23;20028;-60
2023/07/08 00:10:12;;;;;;;5.45;3.45;;;17.20;99.90;;;;;;6245098;23;20027;-60
2023/07/08 00:12:39;;;;;;;8.70;3.38;;;17.20;99.90;;;;;;6246207;23;20024;-60
2023/07/08 00:15:07;;;;;;;7.63;3.92;;;17.20;99.90;;;;;;6245556;23;20070;-60
2023/07/08 00:17:34;;;;;;;6.65;4.10;;;17.10;99.90;;;;;;6245299;23;20031;-60
2023/07/08 00:20:09;;;;;;;8.15;3.92;;;17.10;99.90;;;;;;6245820;23;20027;-60
2023/07/08 00:22:38;;;;;;;11.50;3.88;;;17.10;99.90;;;;;;6244138;23;20028;-60
2023/07/08 00:25:06;;;;;;;5.28;3.70;;;17.00;99.90;;;;;;6244976;23;20032;-61
2023/07/08 00:27:33;;;;;;;7.38;3.70;;;17.00;99.90;;;;;;6246060;22;20027;-60
2023/07/08 00:30:00;;;;;;;6.43;3.97;;;17.00;99.90;;;;;;6245656;23;20070;-60
2023/07/08 00:32:27;;;;;;;8.43;3.63;;;17.00;99.90;;;;;;6245157;23;20099;-61
2023/07/08 00:34:54;;;;;;;6.72;3.80;;;17.00;99.90;;;;;;6243753;23;20028;-60
2023/07/08 00:37:22;;;;;;;6.07;4.15;;;17.00;99.90;;;;;;6245477;23;20024;-60
2023/07/08 00:39:49;;;;;;;7.47;3.60;;;17.00;99.90;;;;;;6244677;23;20024;-60
2023/07/08 00:42:19;;;;;;;7.15;3.65;;;17.00;99.90;;;;;;6245248;23;20020;-61
2023/07/08 00:44:46;;;;;;;6.05;3.30;;;16.90;99.90;;;;;;6242988;23;20024;-61
2023/07/08 00:47:15;;;;;;;7.25;4.05;;;16.90;99.90;;;;;;6245693;23;20024;-61
2023/07/08 00:49:46;;;;;;;7.40;3.45;;;16.90;99.90;;;;;;6243716;23;20024;-61
2023/07/08 00:52:23;;;;;;;8.82;4.00;;;16.90;99.90;;;;;;6243244;23;20020;-60
2023/07/08 00:54:51;;;;;;;5.82;3.47;;;16.90;99.90;;;;;;6243752;23;20020;-60
2023/07/08 00:57:19;;;;;;;8.15;3.72;;;16.80;99.90;;;;;;6245733;23;20026;-60
2023/07/08 00:59:50;;;;;;;6.35;3.85;;;16.80;99.90;;;;;;6244684;23;20024;-60
2023/07/08 01:02:21;;;;;;;5.60;4.13;;;16.80;99.90;;;;;;6245304;23;20074;-60
2023/07/08 01:04:53;;;;;;;4.95;3.38;;;16.80;99.90;;;;;;6243830;23;20083;-60
2023/07/08 01:07:22;;;;;;;6.45;3.78;;;16.80;99.90;;;;;;6244722;23;20066;-60
2023/07/08 01:09:54;;;;;;;7.30;4.03;;;16.70;99.90;;;;;;6243491;23;20032;-60
2023/07/08 01:12:25;;;;;;;7.55;4.28;;;16.80;99.90;;;;;;6243699;23;20123;-61
2023/07/08 01:14:54;;;;;;;5.35;3.42;;;16.70;99.90;;;;;;6244788;23;20028;-61
2023/07/08 01:17:22;;;;;;;7.20;3.78;;;16.70;99.90;;;;;;6243405;23;20038;-61
2023/07/08 01:19:51;;;;;;;10.65;3.78;;;16.70;99.90;;;;;;6244615;23;20074;-61
2023/07/08 01:22:20;;;;;;;9.95;3.65;;;16.70;99.90;;;;;;6245248;22;20030;-60
2023/07/08 01:24:48;;;;;;;9.43;4.20;;;16.60;99.90;;;;;;6245240;23;20050;-61
2023/07/08 01:27:19;;;;;;;5.63;3.90;;;16.60;99.90;;;;;;6242792;23;20032;-61
2023/07/08 01:29:46;;;;;;;8.05;3.85;;;16.60;99.90;;;;;;6245112;23;20078;-60
2023/07/08 01:32:17;;;;;;;5.53;3.63;;;16.60;99.90;;;;;;6243775;23;20031;-60
2023/07/08 01:34:59;;;;;;;7.68;3.92;;;16.60;99.90;;;;;;6244350;22;20028;-61
2023/07/08 01:37:30;;;;;;;5.55;3.58;;;16.50;99.90;;;;;;6244991;23;20091;-60
2023/07/08 01:39:57;;;;;;;6.68;3.95;;;16.50;99.90;;;;;;6245297;23;20024;-60
2023/07/08 01:42:24;;;;;;;6.90;3.80;;;16.60;99.90;;;;;;6244148;23;20035;-61
2023/07/08 01:44:52;;;;;;;8.18;4.13;;;16.50;99.90;;;;;;6245323;23;20351;-59
2023/07/08 01:47:22;;;;;;;6.32;4.25;;;16.50;99.90;;;;;;6245280;23;20027;-60
2023/07/08 01:49:49;;;;;;;6.30;4.03;;;16.50;99.90;;;;;;6244590;23;20028;-61
2023/07/08 01:52:18;;;;;;;6.05;4.30;;;16.50;99.90;;;;;;6245068;23;20034;-61
2023/07/08 01:54:55;;;;;;;8.73;4.22;;;16.50;99.90;;;;;;6245344;23;20035;-61
2023/07/08 01:57:22;;;;;;;9.20;4.32;;;16.40;99.90;;;;;;6245566;23;20074;-59
2023/07/08 01:59:49;;;;;;;6.72;4.20;;;16.40;99.90;;;;;;6245445;23;20050;-61
2023/07/08 02:02:15;;;;;;;5.82;4.20;;;16.40;99.90;;;;;;6244431;23;20020;-61
2023/07/08 02:04:42;;;;;;;9.63;4.57;;;16.40;99.90;;;;;;6246988;23;20074;-60
2023/07/08 02:07:09;;;;;;;5.85;3.60;;;16.40;99.90;;;;;;6246897;22;20028;-60
2023/07/08 02:09:36;;;;;;;7.65;4.28;;;16.40;99.90;;;;;;6246694;23;20024;-60
2023/07/08 02:12:05;;;;;;;6.97;3.97;;;16.40;99.90;;;;;;6247054;23;20070;-60
2023/07/08 02:14:32;;;;;;;7.53;4.68;;;16.40;99.90;;;;;;6247416;22;20331;-60
2023/07/08 02:16:59;;;;;;;10.60;4.25;;;16.30;99.90;;;;;;6246425;23;20028;-59
2023/07/08 02:19:27;;;;;;;7.53;4.47;;;16.30;99.90;;;;;;6247377;23;20381;-60
2023/07/08 02:21:54;;;;;;;6.18;4.15;;;16.30;99.90;;;;;;6247235;22;20022;-60
2023/07/08 02:24:22;;;;;;;6.07;3.92;;;16.30;99.90;;;;;;6244585;23;20458;-60
2023/07/08 02:26:50;;;;;;;8.65;3.78;;;16.30;99.90;;;;;;6245225;23;20108;-60
2023/07/08 02:29:18;;;;;;;6.68;4.00;;;16.30;99.90;;;;;;6245246;23;20076;-60
2023/07/08 02:31:45;;;;;;;7.40;4.60;;;16.30;99.90;;;;;;6244266;23;20032;-61
2023/07/08 02:34:12;;;;;;;8.23;3.97;;;16.20;99.90;;;;;;6246844;23;20400;-61
2023/07/08 02:36:39;;;;;;;10.13;4.53;;;16.20;99.90;;;;;;6244989;23;20420;-61
2023/07/08 02:39:06;;;;;;;6.57;4.43;;;16.20;99.90;;;;;;6244475;23;20035;-59
2023/07/08 02:41:33;;;;;;;7.43;4.53;;;16.30;99.90;;;;;;6246625;23;20354;-60
2023/07/08 02:44:00;;;;;;;10.32;4.90;;;16.20;99.90;;;;;;6247001;23;20331;-60
2023/07/08 02:46:28;;;;;;;7.25;4.28;;;16.20;99.90;;;;;;6246081;23;20108;-60
2023/07/08 02:48:55;;;;;;;8.93;4.43;;;16.30;99.90;;;;;;6246968;23;20027;-60
2023/07/08 02:51:22;;;;;;;8.38;4.80;;;16.30;99.90;;;;;;6246003;23;20016;-60
2023/07/08 02:53:50;;;;;;;10.05;4.53;;;16.20;99.90;;;;;;6246488;23;20074;-60
2023/07/08 02:56:17;;;;;;;6.82;4.22;;;16.20;99.90;;;;;;6246651;23;20028;-61
2023/07/08 02:58:44;;;;;;;5.85;4.38;;;16.30;99.90;;;;;;6246014;23;20028;-60
2023/07/08 03:01:11;;;;;;;10.18;4.70;;;16.20;99.90;;;;;;6246770;23;20020;-61
2023/07/08 03:03:39;;;;;;;7.32;5.05;;;16.20;99.90;;;;;;6246372;23;20020;-60
2023/07/08 03:06:06;;;;;;;8.00;4.70;;;16.20;99.90;;;;;;6243962;23;20024;-60
2023/07/08 03:08:33;;;;;;;6.45;4.10;;;16.20;99.90;;;;;;6244389;23;20027;-59
2023/07/08 03:11:03;;;;;;;6.68;4.75;;;16.20;99.90;;;;;;6244745;23;20473;-60
2023/07/08 03:13:30;;;;;;;9.27;5.30;;;16.10;99.90;;;;;;6245356;22;20162;-60
2023/07/08 03:15:59;;;;;;;10.00;4.90;;;16.10;99.90;;;;;;6244388;23;20024;-60
2023/07/08 03:18:27;;;;;;;21.48;6.45;;;16.20;99.90;;;;;;6244560;23;20055;-59
2023/07/08 03:20:56;;;;;;;7.30;4.25;;;16.10;99.90;;;;;;6243759;23;20450;-60
2023/07/08 03:23:24;;;;;;;6.57;5.03;;;16.10;99.90;;;;;;6246524;23;20042;-60
2023/07/08 03:25:51;;;;;;;6.15;4.50;;;16.10;99.90;;;;;;6246692;23;20078;-60
2023/07/08 03:28:18;;;;;;;8.82;5.28;;;16.00;99.90;;;;;;6243820;23;20028;-60
2023/07/08 03:30:46;;;;;;;8.48;5.20;;;16.00;99.90;;;;;;6244640;23;20032;-60
2023/07/08 03:33:13;;;;;;;7.75;5.22;;;16.10;99.90;;;;;;6246486;23;20024;-60
2023/07/08 03:35:41;;;;;;;8.07;4.53;;;16.10;99.90;;;;;;6243912;23;20020;-60
2023/07/08 03:38:09;;;;;;;9.43;5.38;;;16.10;99.90;;;;;;6244434;23;20024;-60
2023/07/08 03:40:36;;;;;;;10.15;5.28;;;16.10;99.90;;;;;;6245709;23;20024;-60
2023/07/08 03:43:03;;;;;;;8.48;5.15;;;16.10;99.90;;;;;;6244246;23;20024;-60
2023/07/08 03:45:30;;;;;;;13.77;4.70;;;16.10;99.90;;;;;;6246540;23;20111;-60
2023/07/08 03:47:57;;;;;;;5.75;4.68;;;16.10;99.90;;;;;;6245521;23;20027;-59
2023/07/08 03:50:25;;;;;;;8.40;5.20;;;16.10;99.90;;;;;;6246386;23;20074;-60
2023/07/08 03:52:55;;;;;;;10.88;5.43;;;16.20;99.90;;;;;;6244246;23;20020;-60
2023/07/08 03:55:23;;;;;;;9.68;5.07;;;16.10;99.90;;;;;;6243812;23;20031;-59
2023/07/08 03:57:50;;;;;;;9.20;4.72;;;16.20;99.90;;;;;;6244184;23;20465;-60
2023/07/08 04:00:18;;;;;;;10.02;4.88;;;16.20;99.90;;;;;;6244378;23;20024;-60
2023/07/08 04:02:46;;;;;;;7.65;4.78;;;16.20;99.90;;;;;;6245451;23;20091;-60
2023/07/08 04:05:15;;;;;;;9.25;5.43;;;16.30;99.90;;;;;;6244320;23;20397;-60
2023/07/08 04:07:42;;;;;;;8.68;5.03;;;16.30;99.90;;;;;;6245745;23;20024;-60
2023/07/08 04:10:10;;;;;;;8.02;5.40;;;16.70;99.90;;;;;;6245056;23;20020;-61
2023/07/08 04:12:41;;;;;;;8.52;4.35;;;16.70;99.90;;;;;;6242371;23;20342;-61
2023/07/08 04:15:10;;;;;;;8.38;4.85;;;17.10;99.90;;;;;;6243798;23;20024;-60
2023/07/08 04:17:40;;;;;;;7.20;5.05;;;17.10;99.90;;;;;;6243669;22;20049;-60
2023/07/08 04:20:10;;;;;;;6.63;4.28;;;17.20;99.90;;;;;;6244836;23;20027;-60
2023/07/08 04:22:38;;;;;;;9.45;4.13;;;17.30;99.90;;;;;;6243736;22;20027;-61
2023/07/08 04:25:05;;;;;;;9.30;4.78;;;17.30;99.90;;;;;;6244950;23;20024;-61
2023/07/08 04:27:33;;;;;;;6.72;4.40;;;17.40;99.90;;;;;;6244482;22;20359;-60
2023/07/08 04:30:02;;;;;;;6.15;4.47;;;17.40;99.90;;;;;;6242476;23;20396;-60
2023/07/08 04:32:29;;;;;;;13.63;5.20;;;17.50;99.90;;;;;;6243622;23;20404;-63
2023/07/08 04:34:56;;;;;;;11.57;5.20;;;17.50;99.90;;;;;;6244194;23;20255;-60
2023/07/08 04:37:23;;;;;;;6.43;4.70;;;17.40;99.90;;;;;;6243887;23;20024;-60
2023/07/08 04:39:50;;;;;;;7.78;4.18;;;17.50;99.90;;;;;;6244917;23;20031;-60
2023/07/08 04:42:17;;;;;;;6.90;4.80;;;17.50;99.90;;;;;;6242607;23;20023;-61
2023/07/08 04:44:44;;;;;;;8.50;5.15;;;17.80;99.90;;;;;;6243655;22;20024;-60
2023/07/08 04:47:13;;;;;;;8.73;4.47;;;17.80;99.90;;;;;;6244511;23;20047;-60
2023/07/08 04:49:43;;;;;;;5.95;4.07;;;17.80;99.90;;;;;;6244623;23;20024;-60
2023/07/08 04:52:10;;;;;;;7.60;4.13;;;17.90;99.90;;;;;;6241729;23;20020;-60
2023/07/08 04:54:37;;;;;;;8.20;4.53;;;18.10;99.90;;;;;;6242675;23;20082;-61
2023/07/08 04:57:04;;;;;;;9.10;5.35;;;18.30;99.90;;;;;;6244435;23;20074;-61
2023/07/08 04:59:34;;;;;;;11.05;4.80;;;18.40;99.90;;;;;;6243893;22;20035;-60
2023/07/08 05:02:01;;;;;;;9.60;4.40;;;18.40;99.90;;;;;;6242505;23;20016;-60
2023/07/08 05:04:29;;;;;;;6.78;4.85;;;18.30;99.90;;;;;;6244420;22;20020;-61
2023/07/08 05:06:56;;;;;;;8.30;4.53;;;18.30;99.90;;;;;;6244078;23;20078;-61
2023/07/08 05:09:25;;;;;;;7.80;4.72;;;18.40;99.90;;;;;;6243937;23;20074;-60
2023/07/08 05:11:52;;;;;;;8.98;3.95;;;18.30;99.90;;;;;;6241679;23;20099;-61
2023/07/08 05:14:20;;;;;;;7.03;4.53;;;18.30;99.90;;;;;;6244080;23;20458;-61
2023/07/08 05:16:47;;;;;;;8.50;4.35;;;18.50;99.90;;;;;;6244409;23;20024;-61
2023/07/08 05:19:14;;;;;;;7.35;4.00;;;18.60;99.90;;;;;;6243420;23;20039;-64
2023/07/08 05:21:42;;;;;;;8.38;4.47;;;18.80;99.90;;;;;;6242171;23;20454;-64
2023/07/08 05:24:09;;;;;;;7.32;4.45;;;19.00;99.90;;;;;;6243996;23;20020;-64
2023/07/08 05:26:36;;;;;;;9.18;3.95;;;19.10;99.90;;;;;;6243796;23;20028;-65
2023/07/08 05:29:04;;;;;;;7.65;4.30;;;19.20;99.90;;;;;;6242123;23;20459;-61
2023/07/08 05:31:31;;;;;;;8.00;4.72;;;19.30;99.90;;;;;;6243940;23;20450;-61
2023/07/08 05:33:58;;;;;;;15.32;4.25;;;19.50;99.90;;;;;;6241312;23;20032;-60
2023/07/08 05:36:25;;;;;;;9.98;4.28;;;19.50;99.90;;;;;;6243503;23;20028;-61
2023/07/08 05:38:53;;;;;;;7.20;4.07;;;19.70;99.90;;;;;;6242400;23;20073;-61
2023/07/08 05:41:20;;;;;;;9.77;4.20;;;19.80;99.90;;;;;;6243523;23;20449;-61
2023/07/08 05:43:47;;;;;;;10.38;4.15;;;19.80;99.90;;;;;;6244661;23;20020;-62
2023/07/08 05:46:14;;;;;;;9.15;4.40;;;20.00;99.90;;;;;;6244455;23;20357;-61
2023/07/08 05:48:41;;;;;;;6.28;4.18;;;20.10;99.90;;;;;;6241524;23;20020;-60
2023/07/08 05:51:08;;;;;;;7.03;4.43;;;20.30;99.90;;;;;;6244486;23;20076;-61
2023/07/08 05:53:35;;;;;;;5.22;3.90;;;20.30;99.90;;;;;;6242509;23;20024;-61
2023/07/08 05:56:04;;;;;;;5.97;4.35;;;20.30;99.90;;;;;;6243500;23;20453;-60
2023/07/08 05:58:31;;;;;;;8.02;4.15;;;20.40;99.90;;;;;;6244362;23;20028;-61
2023/07/08 06:00:58;;;;;;;6.40;3.55;;;20.60;99.90;;;;;;6243884;23;20031;-61
2023/07/08 06:03:28;;;;;;;;;;;20.80;99.90;;;;;;6244145;23;20016;-62
2023/07/08 06:05:55;;;;;;;5.28;3.53;;;20.80;99.90;;;;;;6244383;23;19919;-61
2023/07/08 06:08:22;;;;;;;8.68;4.15;;;21.00;99.90;;;;;;6243286;23;20020;-61
2023/07/08 06:10:51;;;;;;;7.93;3.50;;;21.10;99.90;;;;;;6242478;23;20028;-61
2023/07/08 06:13:19;;;;;;;6.53;3.80;;;21.20;99.90;;;;;;6243980;23;20020;-61
2023/07/08 06:15:46;;;;;;;7.43;4.20;;;21.30;99.90;;;;;;6244084;22;20031;-61
2023/07/08 06:18:13;;;;;;;7.45;3.78;;;21.50;99.90;;;;;;6244035;23;20031;-61
2023/07/08 06:20:40;;;;;;;9.60;4.63;;;21.60;99.90;;;;;;6242776;23;20082;-59
2023/07/08 06:23:07;;;;;;;7.68;4.20;;;21.80;99.90;;;;;;6243295;23;20035;-60
2023/07/08 06:25:34;;;;;;;5.78;3.72;;;21.90;99.90;;;;;;6243127;23;20074;-61
2023/07/08 06:28:01;;;;;;;6.50;3.63;;;22.00;99.90;;;;;;6243685;23;20459;-61
2023/07/08 06:30:29;;;;;;;9.02;3.42;;;22.00;99.90;;;;;;6243795;23;20031;-61
2023/07/08 06:32:56;;;;;;;7.80;3.30;;;22.10;99.90;;;;;;6241956;23;20027;-61
2023/07/08 06:35:23;;;;;;;9.02;3.30;;;22.40;99.90;;;;;;6242751;23;20028;-60
2023/07/08 06:37:49;;;;;;;5.30;3.90;;;22.60;99.90;;;;;;6243289;23;20030;-60
2023/07/08 06:40:19;;;;;;;5.93;3.40;;;22.70;99.90;;;;;;6244420;23;20038;-60
2023/07/08 06:42:46;;;;;;;7.57;3.73;;;22.90;99.90;;;;;;6243761;23;20024;-60
2023/07/08 06:45:13;;;;;;;5.95;3.20;;;23.00;99.90;;;;;;6243184;23;20266;-61
2023/07/08 06:47:41;;;;;;;9.52;3.30;;;23.20;99.90;;;;;;6241484;23;20024;-60
2023/07/08 06:50:09;;;;;;;5.60;3.28;;;23.30;99.80;;;;;;6245081;22;20024;-61
2023/07/08 06:52:36;;;;;;;5.45;3.28;;;23.40;99.70;;;;;;6244742;23;20016;-61
2023/07/08 06:55:05;;;;;;;5.95;3.33;;;23.50;99.10;;;;;;6243568;23;20130;-61
2023/07/08 06:57:32;;;;;;;9.32;3.85;;;23.60;99.10;;;;;;6242755;23;20086;-61
2023/07/08 06:59:59;;;;;;;4.53;3.30;;;23.80;98.80;;;;;;6243427;23;20024;-62
2023/07/08 07:02:26;;;;;;;5.22;3.75;;;24.10;98.40;;;;;;6245343;23;20022;-62
2023/07/08 07:04:55;;;;;;;5.93;3.38;;;24.40;98.00;;;;;;6242898;23;20024;-63
2023/07/08 07:07:22;;;;;;;5.07;3.40;;;24.60;96.90;;;;;;6245362;23;20082;-62
2023/07/08 07:09:49;;;;;;;5.95;3.10;;;24.70;96.50;;;;;;6243620;23;20020;-61
2023/07/08 07:12:16;;;;;;;5.88;2.60;;;25.00;96.10;;;;;;6244618;23;20047;-62
2023/07/08 07:14:42;;;;;;;7.03;3.22;;;25.20;95.00;;;;;;6244985;23;20024;-62
2023/07/08 07:17:09;;;;;;;7.85;3.40;;;25.40;95.00;;;;;;6245185;23;20024;-61
2023/07/08 07:19:36;;;;;;;4.20;3.20;;;25.60;94.50;;;;;;6244251;23;20024;-61
2023/07/08 07:22:05;;;;;;;5.63;2.92;;;25.80;94.10;;;;;;6245492;23;20021;-60
2023/07/08 07:24:32;;;;;;;12.52;3.58;;;26.10;94.20;;;;;;6245137;23;20059;-61
2023/07/08 07:26:59;;;;;;;5.10;2.97;;;26.40;94.00;;;;;;6244548;23;20070;-60
2023/07/08 07:29:26;;;;;;;4.57;2.70;;;26.50;93.60;;;;;;6243037;23;20031;-62
2023/07/08 07:31:54;;;;;;;13.55;3.50;;;26.80;92.80;;;;;;6245678;23;20479;-62
2023/07/08 07:34:21;;;;;;;7.93;2.80;;;27.00;92.80;;;;;;6242449;23;20027;-61
2023/07/08 07:36:48;;;;;;;5.85;2.95;;;27.30;92.60;;;;;;6244838;23;20361;-62
2023/07/08 07:39:16;;;;;;;4.18;2.78;;;27.30;92.00;;;;;;6243054;23;20028;-61
2023/07/08 07:41:43;;;;;;;4.57;2.67;;;27.50;91.70;;;;;;6244249;22;20028;-61
2023/07/08 07:44:10;;;;;;;3.95;2.35;;;27.50;91.30;;;;;;6245152;23;20020;-61
2023/07/08 07:46:37;;;;;;;5.97;2.88;;;27.80;91.20;;;;;;6243437;23;20071;-61
2023/07/08 07:49:04;;;;;;;4.13;2.72;;;27.80;90.80;;;;;;6241643;23;20031;-62
2023/07/08 07:51:31;;;;;;;6.15;2.75;;;28.00;89.90;;;;;;6242970;23;20028;-62
2023/07/08 07:53:58;;;;;;;3.60;2.42;;;28.00;89.80;;;;;;6244093;23;20175;-62
2023/07/08 07:56:26;;;;;;;6.88;2.92;;;28.20;90.10;;;;;;6243215;23;20070;-62
2023/07/08 07:58:53;;;;;;;7.00;2.33;;;28.60;90.10;;;;;;6241769;23;20421;-61
2023/07/08 08:01:21;;;;;;;4.90;2.08;;;28.70;89.80;;;;;;6242156;23;20024;-62
2023/07/08 08:03:50;;;;;;;6.35;2.55;;;28.90;89.70;;;;;;6246357;23;20020;-60
2023/07/08 08:06:17;;;;;;;4.88;2.70;;;29.20;89.60;;;;;;6244374;23;20060;-62
2023/07/08 08:08:45;;;;;;;5.13;2.78;;;29.30;88.50;;;;;;6245475;23;20024;-62
2023/07/08 08:11:12;;;;;;;5.38;3.00;;;29.50;88.10;;;;;;6245029;23;20031;-60
2023/07/08 08:13:40;;;;;;;3.92;2.33;;;29.90;86.60;;;;;;6246097;23;20528;-61
2023/07/08 08:16:07;;;;;;;4.22;2.47;;;29.90;86.20;;;;;;6243464;23;20051;-61
2023/07/08 08:18:34;;;;;;;4.88;2.90;;;30.10;85.50;;;;;;6246101;23;20024;-61
2023/07/08 08:21:01;;;;;;;4.93;2.50;;;30.00;83.00;;;;;;6244098;23;20078;-60
2023/07/08 08:23:28;;;;;;;4.82;2.45;;;30.30;84.20;;;;;;6245255;23;20034;-62
2023/07/08 08:25:55;;;;;;;6.53;2.80;;;30.40;83.70;;;;;;6244169;23;20074;-62
2023/07/08 08:28:22;;;;;;;5.93;2.45;;;30.60;84.00;;;;;;6245789;23;20024;-61
2023/07/08 08:30:51;;;;;;;4.97;2.50;;;30.70;83.20;;;;;;6244942;23;20024;-62
2023/07/08 08:33:18;;;;;;;7.63;2.88;;;30.80;82.40;;;;;;6246016;23;20229;-62
2023/07/08 08:35:46;;;;;;;4.82;2.50;;;30.60;82.30;;;;;;6245638;22;20020;-61
2023/07/08 08:38:12;;;;;;;5.75;2.65;;;30.70;80.90;;;;;;6245205;23;20078;-62
2023/07/08 08:40:42;;;;;;;5.28;3.00;;;30.90;81.10;;;;;;6245616;23;20070;-61
2023/07/08 08:43:14;;;;;;;6.47;2.45;;;31.50;81.40;;;;;;6243153;23;20020;-62
2023/07/08 08:45:49;;;;;;;5.25;2.30;;;31.60;80.70;;;;;;6245797;23;20024;-62
2023/07/08 08:48:20;;;;;;;4.38;2.17;;;31.90;81.10;;;;;;6246029;22;20458;-62
2023/07/08 08:50:53;;;;;;;7.15;2.63;;;31.90;79.90;;;;;;6243091;23;20446;-62
2023/07/08 08:53:22;;;;;;;4.97;1.90;;;32.20;79.70;;;;;;6245567;23;20024;-60
2023/07/08 08:55:56;;;;;;;6.30;2.08;;;32.30;78.40;;;;;;6245391;23;20466;-61
2023/07/08 08:58:36;;;;;;;5.13;2.78;;;32.60;78.70;;;;;;6243307;23;20415;-62
2023/07/08 09:01:08;;;;;;;4.65;2.42;;;32.80;78.20;;;;;;6245304;23;20346;-62
2023/07/08 09:03:42;;;;;;;5.70;2.30;;;32.70;78.40;;;;;;6245931;23;20020;-62
2023/07/08 09:06:15;;;;;;;3.78;2.08;;;33.00;76.60;;;;;;6242915;23;20027;-62
2023/07/08 09:08:43;;;;;;;4.53;2.20;;;33.00;77.00;;;;;;6244005;23;20024;-62
2023/07/08 09:11:23;;;;;;;5.88;2.20;;;33.10;77.80;;;;;;6242843;23;20458;-62
2023/07/08 09:13:52;;;;;;;7.25;2.05;;;33.40;75.30;;;;;;6245750;22;20027;-62
2023/07/08 09:16:26;;;;;;;3.50;2.05;;;33.40;74.90;;;;;;6245247;23;20020;-63
2023/07/08 09:19:01;;;;;;;4.03;2.10;;;33.60;74.50;;;;;;6244940;23;20024;-61
2023/07/08 09:21:32;;;;;;;5.72;2.10;;;33.60;72.90;;;;;;6245146;23;20031;-62
2023/07/08 09:24:08;;;;;;;4.40;1.90;;;33.70;73.40;;;;;;6243487;23;20028;-62
2023/07/08 09:26:35;;;;;;;4.22;1.85;;;33.90;73.90;;;;;;6244801;23;20020;-62
2023/07/08 09:29:02;;;;;;;7.35;2.58;;;33.70;74.20;;;;;;6243698;23;20082;-61
2023/07/08 09:31:32;;;;;;;5.55;2.20;;;34.00;74.10;;;;;;6244691;23;20346;-62
2023/07/08 09:34:10;;;;;;;3.92;2.38;;;33.70;72.90;;;;;;6242799;23;20099;-62
2023/07/08 09:36:42;;;;;;;3.17;2.00;;;33.80;72.00;;;;;;6245474;23;20060;-62
2023/07/08 09:39:12;;;;;;;9.18;2.45;;;33.70;72.60;;;;;;6243507;23;20028;-61
2023/07/08 09:41:41;;;;;;;4.95;2.17;;;33.80;71.70;;;;;;6244862;23;20060;-61
2023/07/08 09:44:16;;;;;;;6.18;1.88;;;34.10;73.00;;;;;;6243634;23;20024;-62
2023/07/08 09:46:44;;;;;;;3.83;2.20;;;34.10;72.20;;;;;;6242667;23;20023;-62
2023/07/08 09:49:18;;;;;;;5.72;2.28;;;34.10;72.20;;;;;;6240600;23;20346;-61
2023/07/08 09:51:45;;;;;;;4.95;2.20;;;34.40;72.00;;;;;;6244169;23;20020;-61
2023/07/08 09:54:12;;;;;;;4.65;2.05;;;34.50;72.50;;;;;;6243349;23;20116;-62
2023/07/08 09:56:44;;;;;;;4.55;2.35;;;34.90;72.00;;;;;;6244070;23;20354;-62
2023/07/08 09:59:15;;;;;;;4.15;2.10;;;35.30;71.70;;;;;;6241952;23;20078;-62
2023/07/08 10:01:43;;;;;;;3.65;2.00;;;35.70;71.70;;;;;;6241489;23;20024;-63
2023/07/08 10:04:13;;;;;;;5.20;2.07;;;36.10;71.50;;;;;;6244216;23;20095;-62
2023/07/08 10:06:40;;;;;;;7.13;2.33;;;36.30;70.70;;;;;;6242317;23;20107;-63
2023/07/08 10:09:13;;;;;;;5.80;2.20;;;36.50;70.60;;;;;;6243575;23;20047;-62
2023/07/08 10:11:46;;;;;;;6.03;2.33;;;36.30;69.40;;;;;;6243921;23;20179;-63
2023/07/08 10:14:23;;;;;;;4.90;2.00;;;36.00;69.00;;;;;;6242494;23;20358;-62
2023/07/08 10:16:50;;;;;;;3.58;2.20;;;36.10;70.40;;;;;;6244078;23;20024;-62
2023/07/08 10:19:21;;;;;;;3.85;2.25;;;36.50;70.40;;;;;;6242924;23;20024;-63
2023/07/08 10:21:56;;;;;;;3.33;2.35;;;36.50;68.40;;;;;;6245551;22;20097;-63
2023/07/08 10:24:36;;;;;;;6.47;2.60;;;36.10;69.40;;;;;;6245827;23;20395;-61
2023/07/08 10:27:12;;;;;;;3.95;2.20;;;36.10;69.10;;;;;;6243859;23;20032;-61
2023/07/08 10:29:48;;;;;;;5.65;2.45;;;36.20;69.10;;;;;;6242077;23;20082;-62
2023/07/08 10:32:28;;;;;;;5.07;2.20;;;36.30;69.40;;;;;;6246155;22;20024;-62
2023/07/08 10:35:04;;;;;;;3.45;2.08;;;36.20;68.20;;;;;;6245783;23;20024;-62
2023/07/08 10:37:42;;;;;;;6.32;2.08;;;36.20;67.80;;;;;;6243509;23;20028;-63
2023/07/08 10:40:20;;;;;;;3.92;2.30;;;36.30;68.70;;;;;;6244969;22;20028;-62
2023/07/08 10:43:00;;;;;;;8.32;2.00;;;36.60;67.50;;;;;;6244425;23;20385;-61
2023/07/08 10:45:35;;;;;;;4.32;2.40;;;36.80;68.00;;;;;;6244749;23;20024;-61
2023/07/08 10:48:16;;;;;;;5.43;2.20;;;37.40;68.10;;;;;;6245703;23;20024;-62
2023/07/08 10:51:02;;;;;;;4.05;2.35;;;37.20;66.80;;;;;;6243302;23;20078;-62
2023/07/08 10:53:48;;;;;;;3.85;2.55;;;37.30;67.80;;;;;;6243286;23;20078;-63
2023/07/08 10:56:19;;;;;;;4.43;2.50;;;37.40;67.20;;;;;;6246220;23;20020;-63
2023/07/08 10:59:04;;;;;;;4.90;2.25;;;37.10;67.40;;;;;;6245047;23;20070;-62
2023/07/08 11:01:41;;;;;;;3.90;2.20;;;37.20;66.50;;;;;;6245134;22;20024;-62
2023/07/08 11:04:32;;;;;;;5.80;2.17;;;37.30;66.50;;;;;;6244782;23;20020;-63
2023/07/08 11:07:10;;;;;;;4.35;2.40;;;37.10;66.40;;;;;;6243561;23;20028;-62
2023/07/08 11:09:45;;;;;;;3.40;2.20;;;37.60;67.20;;;;;;6245899;23;20020;-63
2023/07/08 11:12:21;;;;;;;5.63;1.98;;;37.30;66.30;;;;;;6242518;23;20020;-62
2023/07/08 11:14:54;;;;;;;4.40;2.33;;;37.80;65.10;;;;;;6246234;22;20342;-61
2023/07/08 11:17:27;;;;;;;3.90;2.33;;;37.60;66.30;;;;;;6245462;23;20094;-61
2023/07/08 11:19:59;;;;;;;6.10;2.20;;;37.50;66.10;;;;;;6244802;23;20083;-61
2023/07/08 11:22:31;;;;;;;6.85;2.35;;;37.10;66.50;;;;;;6245335;23;20020;-62
2023/07/08 11:24:59;;;;;;;4.32;2.38;;;37.40;66.60;;;;;;6244693;23;20024;-62
2023/07/08 11:27:30;;;;;;;3.80;1.90;;;38.00;66.70;;;;;;6244797;23;20028;-62
2023/07/08 11:30:00;;;;;;;3.72;2.40;;;37.80;65.90;;;;;;6243600;23;20027;-62
2023/07/08 11:32:30;;;;;;;4.38;2.42;;;37.80;65.00;;;;;;6244462;23;20024;-62
2023/07/08 11:34:59;;;;;;;4.75;2.50;;;37.40;64.70;;;;;;6243175;23;20020;-62
2023/07/08 11:37:31;;;;;;;7.07;1.92;;;37.90;64.70;;;;;;6243286;23;20024;-62
2023/07/08 11:40:01;;;;;;;6.25;2.35;;;37.70;64.60;;;;;;6242925;23;20527;-62
2023/07/08 11:42:37;;;;;;;4.50;2.58;;;37.90;65.40;;;;;;6244797;23;20023;-61
2023/07/08 11:45:16;;;;;;;5.07;2.55;;;38.10;64.50;;;;;;6244777;23;20043;-62
2023/07/08 11:47:46;;;;;;;3.10;2.00;;;38.10;63.80;;;;;;6244506;22;20458;-62
2023/07/08 11:50:20;;;;;;;4.78;2.55;;;37.90;64.70;;;;;;6241897;23;20076;-61
2023/07/08 11:52:55;;;;;;;3.35;2.30;;;38.20;63.90;;;;;;6243520;23;20031;-62
2023/07/08 11:55:28;;;;;;;5.28;2.40;;;38.50;63.70;;;;;;6244859;23;20099;-63
2023/07/08 11:57:57;;;;;;;3.45;2.40;;;38.20;63.70;;;;;;6244546;23;20028;-63
2023/07/08 12:00:25;;;;;;;;;;;37.90;63.00;;;;;;6244413;23;20024;-62
2023/07/08 12:02:55;;;;;;;3.67;2.30;;;37.80;64.00;;;;;;6242570;23;19915;-62
2023/07/08 12:05:36;;;;;;;5.20;2.78;;;38.30;63.10;;;;;;6245046;23;20440;-63
2023/07/08 12:08:13;;;;;;;3.30;2.45;;;38.10;62.20;;;;;;6241961;23;20074;-62
2023/07/08 12:10:43;;;;;;;4.95;2.60;;;38.10;62.40;;;;;;6244402;23;20540;-63
2023/07/08 12:13:14;;;;;;;6.47;2.53;;;38.00;61.90;;;;;;6242068;23;20024;-61
2023/07/08 12:15:42;;;;;;;4.20;2.83;;;38.00;62.90;;;;;;6242654;23;20024;-61
2023/07/08 12:18:15;;;;;;;5.25;2.22;;;37.80;62.80;;;;;;6242778;23;20533;-62
2023/07/08 12:20:46;;;;;;;5.43;2.47;;;38.20;63.20;;;;;;6243120;23;20059;-62
2023/07/08 12:23:19;;;;;;;4.32;2.70;;;38.20;62.10;;;;;;6243119;23;20390;-63
2023/07/08 12:25:46;;;;;;;5.50;2.70;;;38.30;61.70;;;;;;6242256;23;20074;-62
2023/07/08 12:28:13;;;;;;;3.55;2.38;;;38.50;61.00;;;;;;6242174;23;20024;-62
2023/07/08 12:30:41;;;;;;;4.28;2.45;;;38.50;61.00;;;;;;6242727;23;20458;-62
2023/07/08 12:33:14;;;;;;;7.55;2.65;;;38.40;61.30;;;;;;6244480;23;20024;-62
2023/07/08 12:35:42;;;;;;;3.55;2.40;;;38.00;60.60;;;;;;6241805;23;20031;-61
2023/07/08 12:38:23;;;;;;;4.95;2.40;;;38.20;60.80;;;;;;6244825;23;20089;-62
2023/07/08 12:40:51;;;;;;;4.15;2.40;;;38.30;61.00;;;;;;6244195;23;20055;-62
2023/07/08 12:43:19;;;;;;;5.60;2.47;;;38.10;60.70;;;;;;6242339;23;20336;-62
2023/07/08 12:45:46;;;;;;;3.58;2.47;;;37.90;60.60;;;;;;6242583;23;20020;-63
2023/07/08 12:48:13;;;;;;;4.15;2.50;;;38.00;60.20;;;;;;6242654;23;20028;-61
2023/07/08 12:50:40;;;;;;;4.57;2.75;;;38.10;60.50;;;;;;6241653;23;20086;-61
2023/07/08 12:53:09;;;;;;;7.30;2.95;;;38.00;60.20;;;;;;6244251;23;20541;-61
2023/07/08 12:55:39;;;;;;;3.45;2.35;;;38.10;60.70;;;;;;6243799;23;20027;-61